Latest Coastal Weather Observations for Karratha

IDW60701

Issued at 3:32 am WST Sunday 14 February 2016 (issued every 10 minutes, with the page automatically refreshed every 10 minutes)

About coastal observations | Map of coastal stations | Coastal observations for WA | Marine services | Other Formats
Station Details ID: 004083 Name: KARRATHA AERO Lat: -20.71 Lon: 116.77 Height: 5.3 m
Data from the previous 72 hours. | See also: Recent months at Karratha
Date/Time
WST
Temp

°C
Wind Pressure Rain
since 9am
mm
Weather Cloud Vis
km
Sea
Height
m
Swell
Dir
 
Speed
knots
Gust
knots
hPa Trend Height
m
Period
s
Dir
14/03:30am 28.4 W 6 8 1006.8 - 0.0 - Cloudy 10 - - - -
14/03:00am 28.4 W 8 10 1006.8 - 0.0 - Partly cloudy 10 - - - -
14/02:30am 28.4 W 8 10 1006.7 - 0.0 - Partly cloudy 9 - - - -
14/02:07am 28.4 WNW 8 11 1006.9 - 0.0 - Partly cloudy 9 - - - -
14/02:03am 28.4 WNW 9 12 1006.9 - 0.0 - Partly cloudy 9 - - - -
14/02:00am 28.5 WNW 9 12 1006.9 - 0.0 - Partly cloudy 9 - - - -
14/01:30am 28.7 W 11 14 1006.9 - 0.0 - Partly cloudy 9 - - - -
14/01:18am 28.7 W 11 13 1006.9 - 0.0 - Partly cloudy 9 - - - -
14/01:15am 28.8 W 12 15 1006.9 - 0.0 - Partly cloudy 9 - - - -
14/01:00am 28.8 W 13 17 1007.1 - 0.0 - Partly cloudy 9 - - - -
14/12:30am 29.0 WNW 11 15 1007.3 - 0.0 - Partly cloudy 9 - - - -
14/12:00am 29.1 W 11 14 1007.5 - 0.0 - Cloudy 9 - - - -
 
Date/Time
WST
Temp

°C
Wind Pressure Rain
since 9am
mm
Weather Cloud Vis
km
Sea
Height
m
Swell
Dir
 
Speed
knots
Gust
knots
hPa Trend Height
m
Period
s
Dir
13/11:54pm 28.9 W 11 14 1007.6 - 0.0 - Partly cloudy 8 - - - -
13/11:30pm 29.0 W 10 12 1007.9 - 0.0 - Partly cloudy 8 - - - -
13/11:00pm 28.8 WNW 8 9 1008.3 - 0.0 - - 8 - - - -
13/10:30pm 29.0 WNW 8 11 1008.5 - 0.0 - Partly cloudy 8 - - - -
13/10:00pm 29.2 NW 8 11 1008.7 - 0.0 - Partly cloudy 8 - - - -
13/09:30pm 29.3 NW 9 11 1008.5 - 0.0 - - 8 - - - -
13/09:00pm 29.6 WNW 10 13 1008.3 - 0.0 - Mostly clear 8 - - - -
13/08:30pm 29.6 WNW 12 15 1008.0 - 0.0 - - 9 - - - -
13/08:00pm 29.6 WNW 11 14 1007.6 - 0.0 - Partly cloudy 9 - - - -
13/07:30pm 29.8 WNW 12 16 1007.3 - 0.0 - - 9 - - - -
13/07:00pm 30.0 WNW 13 17 1006.8 - 0.0 - - 10 - - - -
13/06:30pm 30.4 WNW 13 18 1006.7 - 0.0 - - 10 - - - -
13/06:00pm 30.8 WNW 15 19 1006.2 - 0.0 - - 10 - - - -
13/05:30pm 31.7 NW 13 19 1006.2 - 0.0 - - 10 - - - -
13/05:00pm 32.3 NW 14 18 1006.2 - 0.0 - - 10 - - - -
13/04:30pm 32.3 NW 15 21 1005.9 - 0.0 - - 10 - - - -
13/04:00pm 33.0 NW 15 20 1005.9 - 0.0 - - 10 - - - -
13/03:30pm 33.3 NW 15 20 1006.2 - 0.0 - - 10 - - - -
13/03:00pm 33.6 NW 14 19 1006.1 - 0.0 - - 10 - - - -
13/02:30pm 33.5 NNW 15 19 1006.5 - 0.0 - - 10 - - - -
13/02:00pm 34.6 NW 14 18 1006.5 - 0.0 - - 10 - - - -
13/01:30pm 34.7 NNW 12 16 1006.7 - 0.0 - - 10 - - - -
13/01:00pm 36.3 NW 11 15 1006.8 - 0.0 - - 10 - - - -
13/12:30pm 34.6 NW 10 13 1007.2 - 0.0 - - 10 - - - -
13/12:00pm 34.3 NNW 11 15 1007.6 - 0.0 - - 10 - - - -
13/11:30am 33.5 NNW 11 14 1007.7 - 0.0 - - 10 - - - -
13/11:00am 33.2 NW 10 15 1007.8 - 0.0 - - 10 - - - -
13/10:30am 32.6 NW 10 12 1007.9 - 0.0 - - 10 - - - -
13/10:00am 32.5 NNW 10 13 1008.1 - 0.0 - - 10 - - - -
13/09:30am 31.9 NNW 10 13 1008.5 - 0.0 - - 10 - - - -
13/09:00am 32.0 NW 7 9 1008.4 - 0.0 - - 10 - - - -
13/08:30am 31.4 WNW 7 9 1007.9 - 0.0 - - 10 - - - -
13/08:00am 30.8 W 7 10 1008.0 - 0.0 - - 10 - - - -
13/07:30am 30.4 W 8 10 1007.7 - 0.0 - - 10 - - - -
13/07:00am 29.6 WNW 8 10 1007.4 - 0.0 - Partly cloudy 10 - - - -
13/06:30am 29.2 W 9 11 1006.9 - 0.0 - Partly cloudy 9 - - - -
13/06:00am 28.9 W 9 11 1006.9 - 0.0 - - 10 - - - -
13/05:30am 28.9 WNW 9 11 1006.5 - 0.0 - - 10 - - - -
13/05:00am 28.1 WSW 5 7 1006.5 - 0.0 - - 10 - - - -
13/04:30am 29.2 W 5 7 1006.6 - 0.0 - - 10 - - - -
13/04:00am 29.4 WNW 6 8 1006.6 - 0.0 - - 10 - - - -
13/03:30am 29.6 WNW 7 9 1006.3 - 0.0 - - 10 - - - -
13/03:00am 29.6 W 9 11 1006.1 - 0.0 - Mostly clear 10 - - - -
13/02:30am 29.7 W 10 11 1006.2 - 0.0 - - 10 - - - -
13/02:00am 29.8 WSW 10 13 1006.8 - 0.0 - - 10 - - - -
13/01:30am 30.3 W 12 15 1006.8 - 0.0 - - 10 - - - -
13/01:00am 30.5 W 11 13 1006.9 - 0.0 - - 10 - - - -
13/12:30am 30.5 W 9 11 1007.0 - 0.0 - - 10 - - - -
13/12:00am 30.8 W 10 11 1007.2 - 0.0 - Partly cloudy 10 - - - -
 
Date/Time
WST
Temp

°C
Wind Pressure Rain
since 9am
mm
Weather Cloud Vis
km
Sea
Height
m
Swell
Dir
 
Speed
knots
Gust
knots
hPa Trend Height
m
Period
s
Dir
12/11:30pm 30.8 W 10 12 1007.4 - 0.0 - - 10 - - - -
12/11:00pm 30.9 WSW 13 14 1007.5 - 0.0 - - 10 - - - -
12/10:30pm 30.8 W 14 17 1007.6 - 0.0 - - 10 - - - -
12/10:00pm 31.5 W 16 18 1007.4 - 0.0 - - 10 - - - -
12/09:30pm 31.4 W 12 15 1007.3 - 0.0 - - 10 - - - -
12/09:00pm 31.7 W 12 14 1007.0 - 0.0 - - 10 - - - -
12/08:30pm 32.1 W 12 15 1006.7 - 0.0 - - 10 - - - -
12/08:00pm 32.6 W 11 12 1006.4 - 0.0 - - 10 - - - -
12/07:30pm 33.6 W 9 11 1006.0 - 0.0 - - 10 - - - -
12/07:00pm 34.2 W 10 12 1005.7 - 0.0 - - 10 - - - -
12/06:30pm 35.2 W 11 13 1005.2 - 0.0 - - 10 - - - -
12/06:00pm 35.1 W 13 15 1005.1 - 0.0 - - 10 - - - -
12/05:30pm 37.7 WNW 12 15 1004.9 - 0.0 - - 10 - - - -
12/05:00pm 37.9 WNW 11 13 1004.6 - 0.0 - - 10 - - - -
12/04:30pm 37.7 NW 11 15 1004.5 - 0.0 - - 10 - - - -
12/04:00pm 39.2 NNW 12 16 1004.4 - 0.0 - - 10 - - - -
12/03:30pm 38.8 NNW 13 17 1004.4 - 0.0 - - 10 - - - -
12/03:00pm 39.3 NNW 13 18 1004.5 - 0.0 - - 10 - - - -
12/02:30pm 39.3 NNW 14 18 1004.7 - 0.0 - - 10 - - - -
12/02:00pm 40.0 N 15 21 1005.0 - 0.0 - - 10 - - - -
12/01:30pm 44.1 NNE 13 16 1005.3 - 0.0 - - 10 - - - -
12/01:00pm 43.2 NNE 14 17 1005.6 - 0.0 - - 10 - - - -
12/12:30pm 43.9 NNE 12 17 1005.9 - 0.0 - - 10 - - - -
12/12:00pm 42.9 NNE 10 15 1006.4 - 0.0 - - 10 - - - -
12/11:30am 42.4 NNE 9 13 1006.7 - 0.0 - - 10 - - - -
12/11:00am 43.1 NE 9 11 1006.9 - 0.0 - - 10 - - - -
12/10:30am 42.5 ENE 10 13 1007.2 - 0.0 - - 10 - - - -
12/10:00am 40.3 NE 8 11 1007.5 - 0.0 - - 10 - - - -
12/09:30am 42.0 E 4 6 1007.5 - 0.0 - - 10 - - - -
12/09:00am 41.5 SSE 9 11 1007.7 - 0.0 - - 10 - - - -
12/08:30am 39.9 SSE 8 10 1007.8 - 0.0 - - 10 - - - -
12/08:00am 37.2 SSE 6 7 1007.7 - 0.0 - - 10 - - - -
12/07:30am 33.1 CALM 0 0 1007.7 - 0.0 - - 10 - - - -
12/07:00am 31.0 S 1 6 1007.5 - 0.0 - - 10 - - - -
12/06:30am 29.2 S 3 5 1007.4 - 0.0 - - 10 - - - -
12/06:00am 28.1 SSW 3 5 1007.2 - 0.0 - - 10 - - - -
12/05:30am 28.5 WSW 3 4 1006.9 - 0.0 - - 10 - - - -
12/05:00am 27.7 SW 4 5 1006.9 - 0.0 - - 10 - - - -
12/04:30am 28.4 WSW 6 7 1006.8 - 0.0 - - 10 - - - -
12/04:00am 28.9 WSW 7 9 1006.7 - 0.0 - - 10 - - - -
12/03:30am 28.2 SW 4 7 1006.6 - 0.0 - - 10 - - - -
12/03:00am 28.6 WSW 4 8 1006.5 - 0.0 - - 10 - - - -
12/02:30am 29.8 WSW 6 7 1006.5 - 0.0 - - 10 - - - -
12/02:00am 30.8 WSW 6 7 1006.7 - 0.0 - - 10 - - - -
12/01:30am 30.9 W 5 7 1007.0 - 0.0 - - 10 - - - -
12/01:00am 31.3 WSW 7 9 1007.2 - 0.0 - - 10 - - - -
12/12:30am 30.5 SW 5 6 1007.5 - 0.0 - - 10 - - - -
12/12:00am 31.3 SW 6 8 1007.7 - 0.0 - - 10 - - - -
 
Date/Time
WST
Temp

°C
Wind Pressure Rain
since 9am
mm
Weather Cloud Vis
km
Sea
Height
m
Swell
Dir
 
Speed
knots
Gust
knots
hPa Trend Height
m
Period
s
Dir
11/11:30pm 32.1 WSW 7 8 1007.8 - 0.0 - - 10 - - - -
11/11:00pm 32.7 WSW 8 9 1008.0 - 0.0 - - 10 - - - -
11/10:30pm 32.9 WSW 10 12 1008.1 - 0.0 - - 10 - - - -
11/10:00pm 33.9 W 10 11 1007.8 - 0.0 - - 10 - - - -
11/09:30pm 34.2 W 9 10 1007.7 - 0.0 - - 10 - - - -
11/09:00pm 34.6 W 10 11 1007.5 - 0.0 - - 10 - - - -
11/08:30pm 34.8 W 7 9 1007.2 - 0.0 - - 10 - - - -
11/08:00pm 35.2 W 9 11 1006.9 - 0.0 - - 10 - - - -
11/07:30pm 35.5 W 10 11 1006.6 - 0.0 - - 10 - - - -
11/07:00pm 36.0 W 9 11 1006.3 - 0.0 - - 10 - - - -
11/06:30pm 38.1 W 10 13 1005.9 - 0.0 - - 10 - - - -
11/06:00pm 39.4 W 9 11 1005.5 - 0.0 - - 10 - - - -
11/05:30pm 40.2 WNW 10 12 1005.2 - 0.0 - - 10 - - - -
11/05:00pm 41.3 NW 11 14 1004.9 - 0.0 - - 10 - - - -
11/04:30pm 41.0 WNW 11 14 1004.6 - 0.0 - - 10 - - - -
11/04:00pm 42.0 NW 10 13 1004.6 - 0.0 - - 10 - - - -
11/03:30pm 41.0 NW 12 15 1004.7 - 0.0 - - 10 - - - -
11/03:00pm 42.3 NNE 12 16 1004.8 - 0.0 - - 10 - - - -
11/02:30pm 42.7 NNE 13 17 1005.1 - 0.0 - - 10 - - - -
11/02:00pm 42.5 NNE 14 18 1005.4 - 0.0 - - 10 - - - -
11/01:30pm 42.7 NNE 13 18 1005.7 - 0.0 - - 10 - - - -
11/01:00pm 43.2 NNE 11 15 1006.0 - 0.0 - - 10 - - - -
11/12:30pm 44.2 NE 14 18 1006.3 - 0.0 - - 10 - - - -
11/12:00pm 44.3 NNE 7 11 1006.5 - 0.0 - - 10 - - - -
11/11:30am 43.8 NE 6 10 1006.8 - 0.0 - - 10 - - - -
11/11:00am 42.6 N 6 8 1007.1 - 0.0 - - 10 - - - -
11/10:30am 41.6 NE 6 8 1007.5 - 0.0 - - 10 - - - -
11/10:00am 40.4 NNE 5 7 1007.9 - 0.0 - - 10 - - - -
11/09:30am 39.6 NE 4 6 1008.2 - 0.0 - - 10 - - - -
11/09:00am 39.9 E 4 6 1008.4 - 0.0 - - 10 - - - -
11/08:30am 38.8 SSE 7 9 1008.5 - 0.0 - - 10 - - - -
11/08:00am 35.8 S 3 5 1008.4 - 0.0 - - 10 - - - -
11/07:30am 33.6 SW 2 5 1008.2 - 0.0 - - 10 - - - -
11/07:00am 30.0 SSW 2 4 1008.1 - 0.0 - - 10 - - - -
11/06:30am 27.2 S 3 5 1007.8 - 0.0 - - 10 - - - -
11/06:00am 26.5 S 1 4 1007.6 - 0.0 - - 10 - - - -
11/05:30am 27.6 CALM 0 0 1007.4 - 0.0 - - 10 - - - -
11/05:00am 28.3 CALM 0 0 1007.1 - 0.0 - - 10 - - - -
11/04:30am 27.3 CALM 0 1 1007.1 - 0.0 - - 10 - - - -
11/04:00am 28.6 WSW 5 5 1006.8 - 0.0 - - 10 - - - -

Other Formats:

Comma delimited format used in spreadsheet applications
http://www.bom.gov.au/fwo/IDW60701/IDW60701.95307.axf

JavaScript Object Notation format (JSON) in row-major order
http://www.bom.gov.au/fwo/IDW60701/IDW60701.95307.json